createdAt,value
2023-05-14T00:00:23.699Z,2.38
2023-05-14T00:03:25.594Z,2.28
2023-05-14T00:06:27.073Z,2.20
2023-05-14T00:09:30.281Z,2.10
2023-05-14T00:12:32.104Z,2.20
2023-05-14T00:15:34.504Z,2.40
2023-05-14T00:18:36.230Z,2.10
2023-05-14T00:21:37.787Z,2.10
2023-05-14T00:24:39.327Z,2.20
2023-05-14T00:27:41.073Z,2.20
2023-05-14T00:30:42.594Z,2.03
2023-05-14T00:33:44.101Z,2.13
2023-05-14T00:36:45.689Z,1.98
2023-05-14T00:39:47.198Z,2.00
2023-05-14T00:42:48.702Z,2.05
2023-05-14T00:45:51.654Z,2.25
2023-05-14T00:48:53.622Z,2.28
2023-05-14T00:51:55.850Z,2.13
2023-05-14T00:54:58.737Z,2.13
2023-05-14T00:58:00.866Z,2.00
2023-05-14T01:01:03.133Z,2.22
2023-05-14T01:04:06.088Z,1.98
2023-05-14T01:07:26.191Z,2.13
2023-05-14T01:10:49.088Z,2.20
2023-05-14T01:14:35.962Z,2.03
2023-05-14T01:17:51.577Z,2.10
2023-05-14T01:20:54.525Z,2.05
2023-05-14T01:23:56.030Z,2.17
2023-05-14T01:27:03.841Z,2.10
2023-05-14T01:30:15.098Z,1.98
2023-05-14T01:33:19.455Z,2.10
2023-05-14T01:36:23.032Z,2.13
2023-05-14T01:39:25.612Z,2.17
2023-05-14T01:42:28.506Z,2.10
2023-05-14T01:45:30.898Z,2.08
2023-05-14T01:48:32.443Z,2.10
2023-05-14T01:51:34.237Z,2.00
2023-05-14T01:54:37.375Z,2.10
2023-05-14T01:57:39.329Z,1.90
2023-05-14T02:00:40.994Z,2.15
2023-05-14T02:03:42.587Z,2.03
2023-05-14T02:06:44.154Z,2.20
2023-05-14T02:09:45.925Z,2.20
2023-05-14T02:12:47.480Z,1.90
2023-05-14T02:15:49.903Z,2.00
2023-05-14T02:18:51.530Z,2.13
2023-05-14T02:21:53.580Z,2.10
2023-05-14T02:24:55.129Z,1.92
2023-05-14T02:27:56.686Z,2.00
2023-05-14T02:30:59.998Z,2.00
2023-05-14T02:34:02.840Z,2.00
2023-05-14T02:37:04.525Z,1.80
2023-05-14T02:40:07.206Z,2.10
2023-05-14T02:43:08.889Z,2.22
2023-05-14T02:46:10.395Z,2.00
2023-05-14T02:49:11.900Z,2.10
2023-05-14T02:52:13.425Z,2.08
2023-05-14T02:55:14.959Z,2.00
2023-05-14T02:58:16.520Z,2.10
2023-05-14T03:01:18.806Z,2.00
2023-05-14T03:04:20.821Z,2.15
2023-05-14T03:07:22.391Z,2.08
2023-05-14T03:10:24.162Z,1.90
2023-05-14T03:13:26.041Z,1.95
2023-05-14T03:16:27.673Z,1.80
2023-05-14T03:19:29.165Z,2.00
2023-05-14T03:22:30.816Z,2.08
2023-05-14T03:25:32.355Z,1.90
2023-05-14T03:28:33.901Z,2.25
2023-05-14T03:31:35.571Z,2.00
2023-05-14T03:34:37.191Z,1.98
2023-05-14T03:37:38.748Z,1.90
2023-05-14T03:40:40.312Z,1.83
2023-05-14T03:43:41.791Z,2.00
2023-05-14T03:46:43.312Z,2.00
2023-05-14T03:49:44.984Z,2.08
2023-05-14T03:52:48.246Z,1.98
2023-05-14T03:55:49.750Z,1.88
2023-05-14T03:58:52.327Z,1.98
2023-05-14T04:01:53.883Z,2.35
2023-05-14T04:04:55.529Z,1.90
2023-05-14T04:07:58.151Z,1.98
2023-05-14T04:10:59.639Z,1.80
2023-05-14T04:14:01.293Z,1.85
2023-05-14T04:17:03.759Z,1.80
2023-05-14T04:20:06.128Z,1.67
2023-05-14T04:23:08.651Z,1.90
2023-05-14T04:26:10.158Z,2.00
2023-05-14T04:29:11.731Z,2.10
2023-05-14T04:32:13.298Z,1.77
2023-05-14T04:35:14.825Z,1.90
2023-05-14T04:38:16.451Z,2.00
2023-05-14T04:41:17.946Z,1.80
2023-05-14T04:44:19.422Z,2.05
2023-05-14T04:47:21.120Z,1.90
2023-05-14T04:50:22.873Z,1.90
2023-05-14T04:53:24.583Z,2.00
2023-05-14T04:56:26.188Z,1.92
2023-05-14T04:59:27.684Z,2.10
2023-05-14T05:02:29.236Z,1.80
2023-05-14T05:05:30.864Z,1.90
2023-05-14T05:08:32.412Z,2.20
2023-05-14T05:11:33.927Z,1.90
2023-05-14T05:14:35.427Z,2.00
2023-05-14T05:17:37.304Z,2.00
2023-05-14T05:20:38.874Z,2.08
2023-05-14T05:23:40.360Z,1.77
2023-05-14T05:26:41.998Z,1.98
2023-05-14T05:29:46.558Z,1.90
2023-05-14T05:32:48.206Z,2.00
2023-05-14T05:35:50.129Z,2.10
2023-05-14T05:38:51.726Z,1.92
2023-05-14T05:41:54.044Z,1.73
2023-05-14T05:44:56.201Z,1.80
2023-05-14T05:47:57.754Z,1.95
2023-05-14T05:50:59.497Z,2.03
2023-05-14T05:54:01.243Z,1.80
2023-05-14T05:57:02.762Z,1.92
2023-05-14T06:00:13.100Z,1.70
2023-05-14T06:03:14.758Z,2.10
2023-05-14T06:06:16.246Z,2.00
2023-05-14T06:09:17.757Z,1.70
2023-05-14T06:12:19.228Z,1.83
2023-05-14T06:15:20.837Z,2.00
2023-05-14T06:18:22.396Z,1.80
2023-05-14T06:21:23.898Z,2.10
2023-05-14T06:24:25.457Z,1.70
2023-05-14T06:27:26.941Z,1.80
2023-05-14T06:30:28.504Z,2.13
2023-05-14T06:33:31.228Z,1.90
2023-05-14T06:36:32.846Z,2.00
2023-05-14T06:39:34.305Z,2.20
2023-05-14T06:42:35.764Z,1.83
2023-05-14T06:45:39.262Z,2.08
2023-05-14T06:48:40.849Z,1.80
2023-05-14T06:51:42.516Z,2.08
2023-05-14T06:54:43.996Z,2.00
2023-05-14T06:57:45.676Z,1.70
2023-05-14T07:00:48.291Z,1.80
2023-05-14T07:03:49.773Z,1.90
2023-05-14T07:06:51.300Z,1.98
2023-05-14T07:09:52.762Z,2.00
2023-05-14T07:12:54.404Z,2.05
2023-05-14T07:15:56.112Z,2.05
2023-05-14T07:18:57.631Z,1.90
2023-05-14T07:21:59.217Z,1.65
2023-05-14T07:25:00.772Z,1.90
2023-05-14T07:28:02.266Z,1.98
2023-05-14T07:31:08.701Z,2.03
2023-05-14T07:34:11.517Z,1.67
2023-05-14T07:37:13.074Z,1.95
2023-05-14T07:40:14.729Z,2.00
2023-05-14T07:43:16.222Z,1.70
2023-05-14T07:46:17.713Z,1.70
2023-05-14T07:49:19.202Z,1.90
2023-05-14T07:52:20.728Z,1.80
2023-05-14T07:55:22.262Z,1.90
2023-05-14T07:58:24.942Z,2.15
2023-05-14T08:01:26.442Z,1.80
2023-05-14T08:04:28.080Z,1.80
2023-05-14T08:07:30.064Z,1.85
2023-05-14T08:10:31.659Z,1.88
2023-05-14T08:13:33.415Z,1.90
2023-05-14T08:16:35.049Z,1.85
2023-05-14T08:19:36.638Z,1.80
2023-05-14T08:22:38.185Z,1.80
2023-05-14T08:25:39.693Z,1.90
2023-05-14T08:28:41.175Z,1.95
2023-05-14T08:31:42.744Z,1.90
2023-05-14T08:34:44.273Z,2.05
2023-05-14T08:37:45.954Z,1.90
2023-05-14T08:40:58.639Z,1.83
2023-05-14T08:44:06.906Z,2.15
2023-05-14T08:47:08.941Z,2.17
2023-05-14T08:50:10.830Z,2.30
2023-05-14T08:53:12.363Z,2.33
2023-05-14T08:56:16.430Z,2.70
2023-05-14T08:59:17.993Z,2.50
2023-05-14T09:02:24.767Z,2.53
2023-05-14T09:05:26.441Z,2.75
2023-05-14T09:08:28.131Z,3.00
2023-05-14T09:11:29.880Z,2.90
2023-05-14T09:14:33.270Z,2.97
2023-05-14T09:17:35.208Z,3.10
2023-05-14T09:20:37.882Z,2.97
2023-05-14T09:23:42.461Z,3.20
2023-05-14T09:26:43.964Z,3.05
2023-05-14T09:29:45.546Z,2.80
2023-05-14T09:32:48.198Z,2.70
2023-05-14T09:35:49.672Z,3.08
2023-05-14T09:38:51.215Z,2.67
2023-05-14T09:41:53.324Z,2.60
2023-05-14T09:44:54.780Z,2.50
2023-05-14T09:47:59.836Z,2.67
2023-05-14T09:51:02.776Z,2.65
2023-05-14T09:54:06.250Z,2.60
2023-05-14T09:57:07.759Z,2.30
2023-05-14T10:00:10.191Z,2.55
2023-05-14T10:03:15.283Z,2.70
2023-05-14T10:09:26.123Z,2.30
2023-05-14T10:12:32.347Z,2.55
2023-05-14T10:15:35.749Z,2.60
2023-05-14T10:18:42.988Z,2.60
2023-05-14T10:21:57.512Z,2.83
2023-05-14T10:25:00.049Z,2.58
2023-05-14T10:28:03.469Z,2.67
2023-05-14T10:31:05.109Z,2.55
2023-05-14T10:34:45.850Z,2.63
2023-05-14T10:37:47.459Z,2.75
2023-05-14T10:40:49.004Z,2.55
2023-05-14T10:43:51.000Z,2.72
2023-05-14T10:46:52.970Z,2.72
2023-05-14T10:49:57.714Z,2.72
2023-05-14T10:52:59.225Z,3.10
2023-05-14T10:56:08.909Z,3.22
2023-05-14T10:59:10.534Z,2.90
2023-05-14T11:02:31.781Z,3.03
2023-05-14T11:05:35.897Z,3.80
2023-05-14T11:08:38.419Z,4.40
2023-05-14T11:11:40.094Z,4.88
2023-05-14T11:14:41.709Z,5.47
2023-05-14T11:17:45.625Z,5.38
2023-05-14T11:20:47.088Z,5.70
2023-05-14T11:23:48.879Z,6.07
2023-05-14T11:26:50.429Z,6.53
2023-05-14T11:29:52.290Z,8.02
2023-05-14T11:32:54.290Z,9.15
2023-05-14T11:35:55.964Z,10.00
2023-05-14T11:38:57.430Z,11.05
2023-05-14T11:42:02.083Z,12.40
2023-05-14T11:45:04.205Z,13.52
2023-05-14T11:48:14.821Z,14.85
2023-05-14T11:51:16.436Z,16.25
2023-05-14T11:54:17.948Z,17.77
2023-05-14T11:57:21.053Z,19.00
2023-05-14T12:00:24.564Z,21.05
2023-05-14T12:03:29.230Z,20.35
2023-05-14T12:06:32.294Z,20.42
2023-05-14T12:09:48.890Z,19.17
2023-05-14T12:12:50.409Z,16.83
2023-05-14T12:16:00.248Z,13.25
2023-05-14T12:19:03.671Z,11.60
2023-05-14T12:22:05.389Z,8.50
2023-05-14T12:25:13.406Z,6.50
2023-05-14T12:28:19.038Z,5.63
2023-05-14T12:31:30.975Z,5.37
2023-05-14T12:34:32.566Z,4.18
2023-05-14T12:37:36.054Z,4.38
2023-05-14T12:40:37.591Z,3.25
2023-05-14T12:43:43.217Z,3.30
2023-05-14T12:46:44.855Z,3.05
2023-05-14T12:49:46.358Z,3.00
2023-05-14T12:52:47.905Z,2.78
2023-05-14T12:55:49.628Z,2.83
2023-05-14T12:58:51.314Z,3.10
2023-05-14T13:01:52.788Z,2.78
2023-05-14T13:04:54.268Z,2.90
2023-05-14T13:07:59.182Z,2.60
2023-05-14T13:11:00.722Z,2.72
2023-05-14T13:14:02.843Z,2.75
2023-05-14T13:17:05.217Z,2.50
2023-05-14T13:20:07.581Z,2.60
2023-05-14T13:23:09.059Z,2.60
2023-05-14T13:26:10.605Z,2.63
2023-05-14T13:29:12.353Z,2.50
2023-05-14T13:32:13.877Z,2.80
2023-05-14T13:35:15.679Z,2.38
2023-05-14T13:38:17.173Z,2.70
2023-05-14T13:41:18.678Z,2.47
2023-05-14T13:44:20.203Z,2.60
2023-05-14T13:47:21.975Z,2.53
2023-05-14T13:50:23.480Z,2.30
2023-05-14T13:53:25.572Z,2.40
2023-05-14T13:56:27.108Z,2.70
2023-05-14T13:59:28.567Z,2.70
2023-05-14T14:02:30.634Z,2.50
2023-05-14T14:05:32.959Z,2.65
2023-05-14T14:08:34.487Z,2.20
2023-05-14T14:11:36.022Z,2.78
2023-05-14T14:14:37.467Z,2.50
2023-05-14T14:17:41.553Z,2.60
2023-05-14T14:20:43.148Z,2.50
2023-05-14T14:23:47.792Z,2.70
2023-05-14T14:26:49.346Z,2.55
2023-05-14T14:29:50.822Z,2.60
2023-05-14T14:32:52.593Z,2.80
2023-05-14T14:35:54.208Z,2.63
2023-05-14T14:38:55.688Z,3.15
2023-05-14T14:41:57.297Z,2.95
2023-05-14T14:44:58.790Z,3.13
2023-05-14T14:48:41.212Z,2.53
2023-05-14T14:51:42.852Z,2.97
2023-05-14T14:54:44.365Z,3.22
2023-05-14T14:57:45.896Z,3.00
2023-05-14T15:00:48.604Z,3.20
2023-05-14T15:03:50.305Z,3.80
2023-05-14T15:06:51.832Z,4.18
2023-05-14T15:09:53.313Z,3.92
2023-05-14T15:12:59.117Z,3.90
2023-05-14T15:16:00.648Z,3.88
2023-05-14T15:19:02.209Z,3.60
2023-05-14T15:22:04.233Z,3.50
2023-05-14T15:25:05.885Z,3.40
2023-05-14T15:28:07.518Z,3.15
2023-05-14T15:31:09.215Z,3.08
2023-05-14T15:34:10.917Z,2.97
2023-05-14T15:37:12.457Z,2.78
2023-05-14T15:40:13.996Z,2.72
2023-05-14T15:43:15.526Z,2.78
2023-05-14T15:46:17.215Z,2.83
2023-05-14T15:49:19.022Z,3.00
2023-05-14T15:52:21.028Z,2.90
2023-05-14T15:55:22.632Z,3.10
2023-05-14T15:58:24.093Z,3.10
2023-05-14T16:01:25.681Z,3.60
2023-05-14T16:04:27.207Z,4.00
2023-05-14T16:07:28.794Z,3.78
2023-05-14T16:10:30.296Z,4.07
2023-05-14T16:13:31.942Z,3.83
2023-05-14T16:16:33.617Z,4.07
2023-05-14T16:19:35.249Z,3.67
2023-05-14T16:22:36.762Z,3.90
2023-05-14T16:25:38.374Z,3.67
2023-05-14T16:28:41.306Z,4.07
2023-05-14T16:31:43.003Z,3.88
2023-05-14T16:34:49.781Z,3.95
2023-05-14T16:37:51.325Z,3.78
2023-05-14T16:40:52.829Z,3.90
2023-05-14T16:43:54.328Z,3.80
2023-05-14T16:46:56.239Z,3.70
2023-05-14T16:49:57.785Z,3.42
2023-05-14T16:52:59.333Z,3.70
2023-05-14T16:56:01.159Z,3.65
2023-05-14T16:59:02.696Z,3.30
2023-05-14T17:02:04.821Z,3.22
2023-05-14T17:05:07.958Z,3.20
2023-05-14T17:08:09.995Z,3.30
2023-05-14T17:11:11.477Z,3.10
2023-05-14T17:14:12.963Z,3.17
2023-05-14T17:17:14.541Z,2.95
2023-05-14T17:20:17.150Z,3.08
2023-05-14T17:23:19.767Z,3.55
2023-05-14T17:26:21.757Z,3.28
2023-05-14T17:29:23.267Z,3.05
2023-05-14T17:32:24.864Z,3.33
2023-05-14T17:35:26.542Z,2.90
2023-05-14T17:38:28.082Z,3.15
2023-05-14T17:41:29.579Z,3.20
2023-05-14T17:44:31.265Z,3.10
2023-05-14T17:47:32.814Z,2.97
2023-05-14T17:50:34.387Z,3.38
2023-05-14T17:53:35.872Z,3.40
2023-05-14T17:56:37.608Z,3.40
2023-05-14T17:59:39.075Z,3.60
2023-05-14T18:02:41.305Z,3.45
2023-05-14T18:05:42.932Z,3.50
2023-05-14T18:08:44.464Z,3.65
2023-05-14T18:11:45.972Z,3.08
2023-05-14T18:14:47.545Z,3.42
2023-05-14T18:17:49.077Z,3.00
2023-05-14T18:20:51.816Z,3.00
2023-05-14T18:23:53.321Z,2.97
2023-05-14T18:26:54.941Z,3.17
2023-05-14T18:29:56.417Z,3.00
2023-05-14T18:32:59.584Z,3.10
2023-05-14T18:36:01.630Z,2.95
2023-05-14T18:39:03.190Z,2.80
2023-05-14T18:42:04.894Z,2.92
2023-05-14T18:45:06.843Z,2.90
2023-05-14T18:48:09.690Z,2.90
2023-05-14T18:51:12.267Z,2.80
2023-05-14T18:54:13.722Z,2.60
2023-05-14T18:57:15.271Z,2.80
2023-05-14T19:00:17.038Z,2.80
2023-05-14T19:03:20.205Z,2.60
2023-05-14T19:06:21.921Z,2.85
2023-05-14T19:09:24.069Z,2.97
2023-05-14T19:12:26.705Z,3.00
2023-05-14T19:15:28.323Z,3.00
2023-05-14T19:18:30.005Z,2.80
2023-05-14T19:21:31.641Z,3.60
2023-05-14T19:24:33.136Z,3.20
2023-05-14T19:27:36.049Z,3.35
2023-05-14T19:30:37.525Z,3.45
2023-05-14T19:33:39.130Z,3.40
2023-05-14T19:36:41.632Z,3.63
2023-05-14T19:39:43.113Z,3.67
2023-05-14T19:42:44.625Z,4.30
2023-05-14T19:45:46.092Z,4.20
2023-05-14T19:48:48.448Z,4.28
2023-05-14T19:51:49.990Z,4.57
2023-05-14T19:54:51.480Z,4.47
2023-05-14T19:57:52.960Z,4.60
2023-05-14T20:00:57.162Z,4.60
2023-05-14T20:03:58.690Z,4.60
2023-05-14T20:07:00.728Z,5.18
2023-05-14T20:10:02.230Z,4.78
2023-05-14T20:13:04.151Z,4.88
2023-05-14T20:16:05.918Z,5.13
2023-05-14T20:19:07.768Z,4.68
2023-05-14T20:22:09.310Z,4.72
2023-05-14T20:25:10.920Z,5.20
2023-05-14T20:28:12.419Z,5.10
2023-05-14T20:31:13.948Z,4.60
2023-05-14T20:34:15.567Z,4.50
2023-05-14T20:37:18.266Z,4.30
2023-05-14T20:40:19.858Z,4.57
2023-05-14T20:43:21.400Z,4.60
2023-05-14T20:46:22.979Z,4.38
2023-05-14T20:49:24.484Z,4.35
2023-05-14T20:52:26.518Z,4.28
2023-05-14T20:55:28.203Z,4.10
2023-05-14T20:58:29.784Z,4.43
2023-05-14T21:01:31.256Z,4.13
2023-05-14T21:04:33.568Z,4.18
2023-05-14T21:07:36.442Z,4.18
2023-05-14T21:10:37.960Z,3.90
2023-05-14T21:13:39.594Z,4.03
2023-05-14T21:16:41.401Z,4.30
2023-05-14T21:19:42.894Z,4.03
2023-05-14T21:22:44.375Z,4.10
2023-05-14T21:25:45.931Z,4.05
2023-05-14T21:28:47.601Z,3.97
2023-05-14T21:31:49.204Z,4.00
2023-05-14T21:34:50.732Z,3.88
2023-05-14T21:37:52.265Z,3.85
2023-05-14T21:40:53.777Z,3.60
2023-05-14T21:43:55.257Z,3.75
2023-05-14T21:46:56.799Z,3.60
2023-05-14T21:49:58.395Z,3.70
2023-05-14T21:52:59.866Z,4.00
2023-05-14T21:56:01.364Z,3.60
2023-05-14T21:59:02.948Z,3.67
2023-05-14T22:02:07.345Z,3.80
2023-05-14T22:05:09.592Z,3.50
2023-05-14T22:08:11.195Z,3.80
2023-05-14T22:11:12.745Z,3.72
2023-05-14T22:14:14.286Z,3.60
2023-05-14T22:17:15.892Z,3.70
2023-05-14T22:20:17.447Z,3.60
2023-05-14T22:23:18.925Z,3.65
2023-05-14T22:26:21.619Z,3.45
2023-05-14T22:29:23.114Z,3.83
2023-05-14T22:32:25.028Z,3.60
2023-05-14T22:35:26.708Z,3.40
2023-05-14T22:38:28.441Z,3.45
2023-05-14T22:41:30.661Z,3.47
2023-05-14T22:44:32.218Z,3.63
2023-05-14T22:47:33.847Z,3.67
2023-05-14T22:50:35.342Z,3.40
2023-05-14T22:53:36.833Z,3.25
2023-05-14T22:56:38.706Z,3.35
2023-05-14T22:59:40.168Z,3.60
2023-05-14T23:02:41.723Z,3.20
2023-05-14T23:05:43.269Z,3.22
2023-05-14T23:08:44.830Z,3.25
2023-05-14T23:11:46.317Z,3.45
2023-05-14T23:14:47.817Z,3.30
2023-05-14T23:17:49.408Z,3.25
2023-05-14T23:20:50.933Z,3.20
2023-05-14T23:23:52.454Z,3.20
2023-05-14T23:26:54.033Z,3.10
2023-05-14T23:29:55.585Z,3.30
2023-05-14T23:32:57.232Z,3.05
2023-05-14T23:35:58.789Z,3.05
2023-05-14T23:39:00.444Z,3.17
2023-05-14T23:42:01.958Z,3.15
2023-05-14T23:45:03.976Z,3.15
2023-05-14T23:48:05.900Z,3.20
2023-05-14T23:51:07.468Z,3.08
2023-05-14T23:54:08.999Z,3.35
2023-05-14T23:57:12.340Z,2.90
